Map

Track Data

SID SEASON NUMBER BASIN SUBBASIN NAME ISO_TIME NATURE LAT LON WMO_WIND WMO_PRES WMO_AGENCY TRACK_TYPE DIST2LAND LANDFALL IFLAG USA_AGENCY USA_ATCF_ID USA_LAT USA_LON USA_RECORD USA_STATUS USA_WIND USA_PRES USA_SSHS USA_R34_NE USA_R34_SE USA_R34_SW USA_R34_NW USA_R50_NE USA_R50_SE USA_R50_SW USA_R50_NW USA_R64_NE USA_R64_SE USA_R64_SW USA_R64_NW USA_POCI USA_ROCI USA_RMW USA_EYE TOKYO_LAT TOKYO_LON TOKYO_GRADE TOKYO_WIND TOKYO_PRES TOKYO_R50_DIR TOKYO_R50_LONG TOKYO_R50_SHORT TOKYO_R30_DIR TOKYO_R30_LONG TOKYO_R30_SHORT TOKYO_LAND CMA_LAT CMA_LON CMA_CAT CMA_WIND CMA_PRES HKO_LAT HKO_LON HKO_CAT HKO_WIND HKO_PRES NEWDELHI_LAT NEWDELHI_LON NEWDELHI_GRADE NEWDELHI_WIND NEWDELHI_PRES NEWDELHI_CI NEWDELHI_DP NEWDELHI_POCI REUNION_LAT REUNION_LON REUNION_TYPE REUNION_WIND REUNION_PRES REUNION_TNUM REUNION_CI REUNION_RMW REUNION_R34_NE REUNION_R34_SE REUNION_R34_SW REUNION_R34_NW REUNION_R50_NE REUNION_R50_SE REUNION_R50_SW REUNION_R50_NW REUNION_R64_NE REUNION_R64_SE REUNION_R64_SW REUNION_R64_NW BOM_LAT BOM_LON BOM_TYPE BOM_WIND BOM_PRES BOM_TNUM BOM_CI BOM_RMW BOM_R34_NE BOM_R34_SE BOM_R34_SW BOM_R34_NW BOM_R50_NE BOM_R50_SE BOM_R50_SW BOM_R50_NW BOM_R64_NE BOM_R64_SE BOM_R64_SW BOM_R64_NW BOM_ROCI BOM_POCI BOM_EYE BOM_POS_METHOD BOM_PRES_METHOD NADI_LAT NADI_LON NADI_CAT NADI_WIND NADI_PRES WELLINGTON_LAT WELLINGTON_LON WELLINGTON_WIND WELLINGTON_PRES DS824_LAT DS824_LON DS824_STAGE DS824_WIND DS824_PRES TD9636_LAT TD9636_LON TD9636_STAGE TD9636_WIND TD9636_PRES TD9635_LAT TD9635_LON TD9635_WIND TD9635_PRES TD9635_ROCI NEUMANN_LAT NEUMANN_LON NEUMANN_CLASS NEUMANN_WIND NEUMANN_PRES MLC_LAT MLC_LON MLC_CLASS MLC_WIND MLC_PRES USA_GUST BOM_GUST BOM_GUST_PER REUNION_GUST REUNION_GUST_PER USA_SEAHGT USA_SEARAD_NE USA_SEARAD_SE USA_SEARAD_SW USA_SEARAD_NW STORM_SPEED STORM_DIR
1927070S17457 1927 14 SI WA NOT_NAMED 1927-03-11 06:00:00 NR -17.0000 96.9000 spur-split 1455 1452 _____O________ -1 -17.0000 96.9000 99 9.90000 6 312
1927070S17457 1927 14 SI WA NOT_NAMED 1927-03-11 09:00:00 NR -16.8139 96.6834 spur-split 1452 1450 _____P________ -1 -16.8139 96.6834 99 5 312
1927070S17457 1927 14 SI WA NOT_NAMED 1927-03-11 12:00:00 NR -16.6564 96.5036 spur-split 1457 1449 _____P________ -1 -16.6564 96.5036 99 4 313
1927070S17457 1927 14 SI WA NOT_NAMED 1927-03-11 15:00:00 NR -16.5560 96.3959 spur-split 1456 1448 _____P________ -1 -16.5560 96.3959 99 2 317
1927070S17457 1927 14 SI WA NOT_NAMED 1927-03-11 18:00:00 NR -16.5410 96.3955 spur-split 1448 1448 _____P________ -1 -16.5410 96.3955 99 2 122
1927070S17457 1927 14 SI WA NOT_NAMED 1927-03-11 21:00:00 NR -16.6398 96.5381 spur-split 1449 1442 _____P________ -1 -16.6398 96.5381 99 6 127
1927070S17457 1927 14 SI WA NOT_NAMED 1927-03-12 00:00:00 NR -16.8805 96.8604 spur-split 1446 1442 _____P________ -1 -16.8805 96.8604 99 11 128
1927070S17457 1927 14 SI WA NOT_NAMED 1927-03-12 03:00:00 NR -17.2913 97.4006 spur-split 1449 1442 _____P________ -1 -17.2913 97.4006 99 16 129
1927070S17457 1927 14 SI WA NOT_NAMED 1927-03-12 06:00:00 NR -17.9000 98.2000 spur-split 1456 1450 _____O________ -1 -17.9000 98.2000 99 9.90000 23 129
1927070S17457 1927 14 SI WA NOT_NAMED 1927-03-12 09:00:00 NR -18.7214 99.2859 spur-split 1477 1395 _____P________ -1 -18.7214 99.2859 99 29 128
1927070S17457 1927 14 SI WA NOT_NAMED 1927-03-12 12:00:00 NR -19.7205 100.617 spur-split 1385 1214 _____P________ -1 -19.7205 100.617 99 34 128
1927070S17457 1927 14 SI WA NOT_NAMED 1927-03-12 15:00:00 NR -20.8488 102.133 spur-split 1204 1020 _____P________ -1 -20.8488 102.133 99 38 128
1927070S17457 1927 14 SI WA NOT_NAMED 1927-03-12 18:00:00 NR -22.0579 103.771 spur-split 1008 824 _____P________ -1 -22.0579 103.771 99 39 128
1927070S17457 1927 14 SI WA NOT_NAMED 1927-03-12 21:00:00 NR -23.3004 105.460 spur-split 812 647 _____P________ -1 -23.3004 105.460 99 40 129
1927070S17457 1927 14 SI WA NOT_NAMED 1927-03-13 00:00:00 NR -24.5312 107.129 spur-split 637 473 _____P________ -1 -24.5312 107.129 99 38 129
1927070S17457 1927 14 SI WA NOT_NAMED 1927-03-13 03:00:00 NR -25.7097 108.702 spur-split 461 331 _____P________ -1 -25.7097 108.702 99 35 130
1927070S17457 1927 14 SI WA NOT_NAMED 1927-03-13 06:00:00 NR -26.8000 110.100 spur-split 322 260 _____O________ -1 -26.8000 110.100 99 9.90000 31 132
1927070S17457 1927 14 SI WA NOT_NAMED 1927-03-13 09:00:00 NR -27.7792 111.260 spur-split 258 210 _____P________ -1 -27.7792 111.260 99 26 135
1927070S17457 1927 14 SI WA NOT_NAMED 1927-03-13 12:00:00 NR -28.6597 112.194 spur-split 206 178 _____P________ -1 -28.6597 112.194 99 22 139
1927070S17457 1927 14 SI WA NOT_NAMED 1927-03-13 15:00:00 NR -29.4603 112.932 spur-split 182 145 _____P________ -1 -29.4603 112.932 99 19 143
1927070S17457 1927 14 SI WA NOT_NAMED 1927-03-13 18:00:00 NR -30.1979 113.505 spur-split 145 116 _____P________ -1 -30.1979 113.505 99 17 149
1927070S17457 1927 14 SI WA NOT_NAMED 1927-03-13 21:00:00 NR -30.8876 113.945 spur-split 122 113 _____P________ -1 -30.8876 113.945 99 15 154
1927070S17457 1927 14 SI WA NOT_NAMED 1927-03-14 00:00:00 NR -31.5429 114.285 spur-split 113 112 _____P________ -1 -31.5429 114.285 99 14 158
1927070S17457 1927 14 SI WA NOT_NAMED 1927-03-14 03:00:00 NR -32.1765 114.558 spur-split 103 74 _____P________ -1 -32.1765 114.558 99 13 161
1927070S17457 1927 14 SI WA NOT_NAMED 1927-03-14 06:00:00 NR -32.8000 114.800 spur-split 75 _____O________ -1 -32.8000 114.800 99 9.90000 13 162

About IBTrACS Database

This database is a web-friendly format of International Best Track Archive for Climate Stewardship (IBTrACS), a global best track data archive curated by NOAA dating back to 1842.

Updated: 2021-12-03